Time;durP1;ratioP1;P1;durP2;ratioP2;P2;SDS_P1;SDS_P2;PMS_P1;PMS_P2;Temp;Humidity;BMP_temperature;BMP_pressure;BME280_temperature;BME280_humidity;BME280_pressure;Samples;Min_cycle;Max_cycle;Signal;HPM_P1;HPM_P2
2022/02/03 00:02:01;;;;;;;38.97;18.33;;;-0.90;99.90;;;;;;4885089;29;20460;-85
2022/02/03 00:04:33;;;;;;;35.10;16.38;;;-0.90;99.90;;;;;;4883499;29;20039;-86
2022/02/03 00:07:04;;;;;;;34.50;16.33;;;-0.90;99.90;;;;;;4899164;29;20387;-85
2022/02/03 00:25:32;;;;;;;39.50;18.20;;;-0.90;99.90;;;;;;4900512;29;20510;-85
2022/02/03 00:31:31;;;;;;;33.58;16.58;;;-0.80;99.90;;;;;;4899577;29;20356;-85
2022/02/03 00:33:40;;;;;;;29.55;15.57;;;-0.80;99.90;;;;;;4887888;29;20044;-84
2022/02/03 00:36:21;;;;;;;28.27;13.85;;;-0.80;99.90;;;;;;4898661;29;20032;-84
2022/02/03 00:52:37;;;;;;;25.15;12.20;;;-0.80;99.90;;;;;;4900374;29;20600;-84
2022/02/03 00:55:06;;;;;;;24.00;11.20;;;-0.90;99.90;;;;;;4898305;29;20032;-84
2022/02/03 00:57:40;;;;;;;25.98;12.43;;;-0.90;99.90;;;;;;4887506;29;20113;-84
2022/02/03 01:00:08;;;;;;;32.60;13.77;;;-0.90;99.90;;;;;;4906108;29;20037;-86
2022/02/03 01:02:41;;;;;;;30.63;13.57;;;-0.90;99.90;;;;;;4899013;29;20052;-84
2022/02/03 01:05:08;;;;;;;30.92;14.77;;;-0.80;99.90;;;;;;4882961;29;20071;-84
2022/02/03 01:07:37;;;;;;;40.08;17.73;;;-0.80;99.90;;;;;;4883062;29;20037;-83
2022/02/03 01:10:14;;;;;;;38.10;17.23;;;-0.80;99.90;;;;;;4883519;29;20028;-82
2022/02/03 01:13:14;;;;;;;38.28;17.52;;;-0.70;99.90;;;;;;4884104;29;20051;-83
2022/02/03 01:15:50;;;;;;;43.92;19.25;;;-0.70;99.90;;;;;;4884011;29;20032;-83
2022/02/03 01:21:18;;;;;;;44.47;18.55;;;-0.70;99.90;;;;;;4899192;29;20088;-84
2022/02/03 01:37:34;;;;;;;39.05;16.40;;;-0.70;99.90;;;;;;4864504;29;20037;-84
2022/02/03 01:53:47;;;;;;;45.22;16.40;;;-0.70;99.90;;;;;;4905743;29;20043;-86
2022/02/03 01:56:22;;;;;;;39.63;15.00;;;-0.70;99.90;;;;;;4905979;29;20029;-88
2022/02/03 01:58:58;;;;;;;35.72;14.95;;;-0.70;99.90;;;;;;4905805;29;20033;-85
2022/02/03 02:01:32;;;;;;;44.42;15.65;;;-0.80;99.90;;;;;;4886449;29;20033;-85
2022/02/03 02:04:15;;;;;;;45.13;14.60;;;-0.80;99.90;;;;;;4910522;29;20036;-85
2022/02/03 02:07:19;;;;;;;33.55;12.43;;;-0.80;99.90;;;;;;4894960;29;20049;-85
2022/02/03 02:16:07;;;;;;;26.92;11.13;;;-1.00;99.90;;;;;;4900682;29;20386;-85
2022/02/03 02:43:57;;;;;;;27.33;11.02;;;-1.00;99.90;;;;;;4906712;29;20039;-86
2022/02/03 02:46:41;;;;;;;22.42;10.43;;;-1.00;99.90;;;;;;4905719;29;20035;-85
2022/02/03 02:49:39;;;;;;;20.52;9.52;;;-1.00;99.90;;;;;;4890002;29;20024;-86
2022/02/03 02:52:23;;;;;;;21.02;9.68;;;-1.00;99.90;;;;;;4883155;29;20044;-87
2022/02/03 02:59:01;;;;;;;26.48;11.30;;;-1.00;99.90;;;;;;4882930;29;20051;-87
2022/02/03 03:29:16;;;;;;;32.33;11.10;;;-0.90;99.90;;;;;;4888875;29;20043;-83
2022/02/03 03:37:52;;;;;;;25.15;11.13;;;-1.00;99.90;;;;;;4886823;29;20104;-88
2022/02/03 03:40:18;;;;;;;37.55;12.27;;;-1.00;99.90;;;;;;4901763;29;20431;-86
2022/02/03 03:43:07;;;;;;;31.42;12.65;;;-1.00;99.90;;;;;;4885594;29;20124;-83
2022/02/03 03:45:39;;;;;;;28.48;11.77;;;-0.90;99.90;;;;;;4900643;29;20495;-82
2022/02/03 03:48:10;;;;;;;28.02;11.05;;;-1.00;99.90;;;;;;4900146;29;20029;-88
2022/02/03 03:50:40;;;;;;;34.03;12.75;;;-0.90;99.90;;;;;;4886477;29;20033;-86
2022/02/03 03:53:21;;;;;;;30.77;12.48;;;-0.80;99.90;;;;;;4902630;29;20040;-84
2022/02/03 03:56:00;;;;;;;54.35;14.63;;;-0.80;99.90;;;;;;4901223;29;20035;-85
2022/02/03 04:44:00;;;;;;;25.77;10.82;;;-0.70;99.90;;;;;;4863442;29;20413;-85
2022/02/03 04:56:14;;;;;;;36.70;15.85;;;-0.60;99.90;;;;;;4800968;30;20111;-81
2022/02/03 05:05:15;;;;;;;27.65;12.57;;;-0.60;99.90;;;;;;4862012;29;20064;-82
2022/02/03 05:08:29;;;;;;;28.20;12.52;;;-0.60;99.90;;;;;;4860950;29;20447;-82
2022/02/03 05:11:35;;;;;;;29.83;13.05;;;-0.50;99.90;;;;;;4859911;29;20380;-82
2022/02/03 05:17:30;;;;;;;24.88;11.07;;;-0.60;99.90;;;;;;4862408;29;20033;-80
2022/02/03 05:44:10;;;;;;;30.90;14.07;;;-0.40;99.90;;;;;;4895913;29;20491;-80
2022/02/03 06:14:17;;;;;;;29.15;14.80;;;-0.40;99.90;;;;;;4898789;29;20083;-77
2022/02/03 06:24:49;;;;;;;30.13;14.40;;;-0.40;99.90;;;;;;4901227;29;20040;-78
2022/02/03 06:27:38;;;;;;;35.45;15.27;;;-0.40;99.90;;;;;;4898622;29;20048;-78
2022/02/03 06:30:06;;;;;;;25.25;12.70;;;-0.40;99.90;;;;;;4898281;29;20119;-78
2022/02/03 06:32:31;;;;;;;27.17;13.07;;;-0.40;99.90;;;;;;4882168;29;20025;-78
2022/02/03 06:34:57;;;;;;;29.35;14.20;;;-0.40;99.90;;;;;;4902207;29;20069;-77
2022/02/03 06:37:23;;;;;;;31.77;15.85;;;-0.30;99.90;;;;;;4885125;29;20131;-78
2022/02/03 06:39:50;;;;;;;34.10;15.88;;;-0.30;99.90;;;;;;4903135;29;20036;-79
2022/02/03 06:42:16;;;;;;;35.65;16.73;;;-0.30;99.90;;;;;;4902225;29;20028;-79
2022/02/03 06:53:01;;;;;;;33.63;15.35;;;-0.20;99.90;;;;;;4901998;29;20033;-78
2022/02/03 06:55:41;;;;;;;29.83;14.85;;;-0.20;99.90;;;;;;4902017;29;20075;-79
2022/02/03 07:00:40;;;;;;;29.33;14.20;;;-0.10;99.90;;;;;;4902151;29;20036;-79
2022/02/03 07:03:13;;;;;;;27.05;13.68;;;-0.20;99.90;;;;;;4884664;29;20441;-78
2022/02/03 07:05:38;;;;;;;29.90;14.23;;;-0.20;99.90;;;;;;4884706;29;20037;-80
2022/02/03 07:08:13;;;;;;;31.15;14.15;;;-0.20;99.90;;;;;;4885218;29;20502;-79
2022/02/03 07:10:39;;;;;;;28.08;14.18;;;-0.20;99.90;;;;;;4884456;29;20029;-80
2022/02/03 07:13:05;;;;;;;30.80;14.18;;;-0.20;99.90;;;;;;4884214;29;20033;-79
2022/02/03 07:15:31;;;;;;;29.65;14.18;;;-0.20;99.90;;;;;;4884326;29;20045;-78
2022/02/03 07:17:59;;;;;;;28.83;13.90;;;-0.20;99.90;;;;;;4884450;29;20468;-79
2022/02/03 07:20:26;;;;;;;26.88;13.30;;;-0.10;99.90;;;;;;4884190;29;20391;-78
2022/02/03 07:22:51;;;;;;;28.60;13.27;;;0.00;99.90;;;;;;4884306;29;20054;-78
2022/02/03 07:25:17;;;;;;;31.00;15.25;;;0.00;99.90;;;;;;4883902;29;20033;-79
2022/02/03 07:27:44;;;;;;;32.15;14.75;;;0.10;99.90;;;;;;4884172;29;20028;-78
2022/02/03 07:30:14;;;;;;;27.20;13.77;;;0.20;99.90;;;;;;4885330;29;20120;-78
2022/02/03 07:32:40;;;;;;;28.45;13.30;;;0.20;99.90;;;;;;4884092;29;20032;-78
2022/02/03 07:35:08;;;;;;;31.85;15.38;;;0.20;99.90;;;;;;4900068;29;20416;-79
2022/02/03 07:37:46;;;;;;;26.48;13.18;;;0.20;99.90;;;;;;4882332;29;20032;-79
2022/02/03 07:40:12;;;;;;;26.98;13.23;;;0.20;99.90;;;;;;4884990;29;20032;-78
2022/02/03 07:42:39;;;;;;;25.98;13.38;;;0.30;99.90;;;;;;4900529;29;20088;-79
2022/02/03 07:45:06;;;;;;;24.67;12.43;;;0.30;99.90;;;;;;4882226;29;20032;-79
2022/02/03 07:47:32;;;;;;;23.90;11.68;;;0.30;99.90;;;;;;4898725;29;20486;-78
2022/02/03 07:49:59;;;;;;;23.35;11.57;;;0.30;99.90;;;;;;4881645;29;20060;-78
2022/02/03 07:52:25;;;;;;;25.20;13.23;;;0.30;99.90;;;;;;4899267;29;20075;-78
2022/02/03 07:54:51;;;;;;;27.10;13.05;;;0.40;99.90;;;;;;4883390;29;20483;-77
2022/02/03 07:57:22;;;;;;;26.90;12.00;;;0.40;99.90;;;;;;4884050;29;20032;-78
2022/02/03 07:59:52;;;;;;;23.77;11.05;;;0.40;99.90;;;;;;4884755;29;20127;-78
2022/02/03 08:02:18;;;;;;;25.90;12.27;;;0.40;99.90;;;;;;4900380;29;20033;-78
2022/02/03 08:04:47;;;;;;;25.60;13.15;;;0.50;99.90;;;;;;4883528;29;20028;-78
2022/02/03 08:07:15;;;;;;;22.83;11.85;;;0.50;99.90;;;;;;4883474;29;20043;-78
2022/02/03 08:09:52;;;;;;;29.60;15.27;;;0.50;99.90;;;;;;4883568;29;20033;-78
2022/02/03 08:12:21;;;;;;;25.77;13.13;;;0.60;99.90;;;;;;4900563;29;20064;-78
2022/02/03 08:14:49;;;;;;;30.77;15.95;;;0.60;99.90;;;;;;4883298;29;20100;-79
2022/02/03 08:17:21;;;;;;;30.55;15.32;;;0.60;99.90;;;;;;4882993;29;20116;-79
2022/02/03 08:20:00;;;;;;;28.40;14.77;;;0.70;99.90;;;;;;4900796;29;20032;-79
2022/02/03 08:22:32;;;;;;;33.00;15.27;;;0.70;99.90;;;;;;4900226;29;20375;-78
2022/02/03 08:28:02;;;;;;;29.38;13.90;;;0.80;99.90;;;;;;4900185;29;20049;-79
2022/02/03 08:30:47;;;;;;;24.88;13.48;;;0.80;99.90;;;;;;4899797;29;20039;-78
2022/02/03 08:33:19;;;;;;;28.55;13.90;;;0.80;99.90;;;;;;4883191;29;20464;-78
2022/02/03 08:35:48;;;;;;;27.73;13.80;;;0.80;99.90;;;;;;4884305;29;20064;-77
2022/02/03 08:38:22;;;;;;;24.20;12.90;;;0.80;99.90;;;;;;4883109;29;20123;-78
2022/02/03 08:43:17;;;;;;;26.77;13.20;;;0.80;99.90;;;;;;4899719;29;20060;-78
2022/02/03 08:45:43;;;;;;;24.90;12.73;;;0.80;99.90;;;;;;4882380;29;20032;-79
2022/02/03 08:48:11;;;;;;;24.20;12.55;;;0.80;99.90;;;;;;4882816;29;20031;-78
2022/02/03 08:50:37;;;;;;;25.08;12.88;;;0.80;99.90;;;;;;4882614;29;20037;-78
2022/02/03 08:53:09;;;;;;;23.58;12.25;;;0.90;99.90;;;;;;4883223;29;20042;-78
2022/02/03 09:55:02;;;;;;;28.17;14.18;;;1.60;99.90;;;;;;4898240;29;20040;-78
2022/02/03 09:57:50;;;;;;;28.40;13.82;;;1.70;99.90;;;;;;4882178;29;20052;-79
2022/02/03 10:00:32;;;;;;;24.75;13.25;;;1.70;99.90;;;;;;4882234;29;20108;-79
2022/02/03 10:03:50;;;;;;;27.10;13.82;;;1.80;99.90;;;;;;4881536;29;20032;-80
2022/02/03 10:06:23;;;;;;;26.65;13.27;;;1.80;99.90;;;;;;4879043;29;20047;-78
2022/02/03 10:08:54;;;;;;;31.83;15.90;;;1.90;99.90;;;;;;4885676;29;20032;-78
2022/02/03 10:11:22;;;;;;;;;;;1.90;99.90;;;;;;4902743;29;20026;-78
2022/02/03 10:13:56;;;;;;;27.65;13.95;;;1.90;99.90;;;;;;4885267;29;19968;-79
2022/02/03 10:16:40;;;;;;;31.67;15.93;;;2.00;99.90;;;;;;4885588;29;20048;-78
2022/02/03 10:19:17;;;;;;;36.38;17.08;;;2.00;99.90;;;;;;4901215;29;20417;-79
2022/02/03 10:21:44;;;;;;;35.55;17.73;;;2.00;99.90;;;;;;4885059;29;20032;-78
2022/02/03 10:24:16;;;;;;;34.10;17.13;;;2.10;99.90;;;;;;4885005;29;20056;-79
2022/02/03 10:26:46;;;;;;;35.53;17.42;;;2.10;99.90;;;;;;4886172;29;20028;-78
2022/02/03 10:29:27;;;;;;;28.60;14.57;;;2.00;99.90;;;;;;4886685;29;20028;-79
2022/02/03 10:31:52;;;;;;;29.95;15.20;;;2.10;99.90;;;;;;4902635;29;20028;-79
2022/02/03 10:34:25;;;;;;;27.33;14.13;;;2.00;99.90;;;;;;4884997;29;20044;-79
2022/02/03 10:45:07;;;;;;;26.73;14.55;;;2.20;99.90;;;;;;4902510;29;20047;-78
2022/02/03 10:55:44;;;;;;;26.77;14.38;;;2.60;99.90;;;;;;4901560;29;20051;-79
2022/02/03 11:06:21;;;;;;;26.27;15.10;;;3.00;99.90;;;;;;4901742;29;20044;-79
2022/02/03 11:09:03;;;;;;;26.38;14.30;;;3.10;99.90;;;;;;4901587;29;20025;-78
2022/02/03 11:11:39;;;;;;;23.90;13.25;;;3.20;99.90;;;;;;4884188;29;20028;-78
2022/02/03 11:14:11;;;;;;;23.52;12.70;;;3.40;99.90;;;;;;4883866;29;20107;-79
2022/02/03 11:16:39;;;;;;;22.77;12.43;;;3.50;99.90;;;;;;4884158;29;20036;-79
2022/02/03 11:19:08;;;;;;;24.10;12.57;;;3.60;99.90;;;;;;4900618;29;20126;-79
2022/02/03 11:21:35;;;;;;;23.10;12.95;;;3.70;99.90;;;;;;4886484;29;20478;-79
2022/02/03 11:24:09;;;;;;;25.20;13.85;;;3.80;99.90;;;;;;4887034;29;20053;-80
2022/02/03 11:29:56;;;;;;;22.27;12.85;;;4.00;99.90;;;;;;4901944;29;20037;-80
2022/02/03 11:36:10;;;;;;;25.25;13.35;;;4.20;99.90;;;;;;4902159;29;20478;-83
2022/02/03 11:38:36;;;;;;;22.80;13.50;;;4.20;99.90;;;;;;4882487;29;20440;-79
2022/02/03 11:44:39;;;;;;;22.15;12.18;;;4.20;99.90;;;;;;4900973;29;20116;-78
2022/02/03 11:53:27;;;;;;;20.77;12.25;;;4.30;99.90;;;;;;4824532;29;20030;-79
2022/02/03 11:55:59;;;;;;;23.17;12.20;;;4.30;99.90;;;;;;4892427;29;20059;-79
2022/02/03 12:13:04;;;;;;;18.95;12.02;;;4.40;99.90;;;;;;4900948;29;20036;-80
2022/02/03 12:20:20;;;;;;;23.48;14.23;;;4.20;99.90;;;;;;4901182;29;20032;-79
2022/02/03 12:25:55;;;;;;;19.08;11.23;;;4.10;99.90;;;;;;4891531;29;20472;-78
2022/02/03 12:39:06;;;;;;;21.95;12.25;;;3.70;99.90;;;;;;4899455;29;20128;-78
2022/02/03 12:41:43;;;;;;;20.67;11.90;;;3.70;99.90;;;;;;4883196;29;20455;-78
2022/02/03 12:44:29;;;;;;;18.88;11.77;;;3.60;99.90;;;;;;4883062;29;20033;-77
2022/02/03 12:47:02;;;;;;;21.23;12.25;;;3.50;99.90;;;;;;4883443;29;20040;-79
2022/02/03 12:49:32;;;;;;;18.75;11.13;;;3.50;99.90;;;;;;4883489;29;20495;-77
2022/02/03 12:51:58;;;;;;;20.13;11.82;;;3.40;99.90;;;;;;4899740;29;20036;-78
2022/02/03 12:54:24;;;;;;;19.33;10.82;;;3.40;99.90;;;;;;4899320;29;20108;-78
2022/02/03 12:57:10;;;;;;;17.42;11.05;;;3.30;99.90;;;;;;4882554;29;20040;-79
2022/02/03 13:04:16;;;;;;;19.38;11.40;;;3.20;99.90;;;;;;4900128;29;20027;-83
2022/02/03 13:07:00;;;;;;;18.48;10.70;;;3.10;99.90;;;;;;4815515;29;20048;-79
2022/02/03 13:09:32;;;;;;;18.80;11.45;;;3.00;99.90;;;;;;4882369;29;20136;-78
2022/02/03 13:12:17;;;;;;;22.02;12.90;;;3.00;99.90;;;;;;4901434;29;20119;-78
2022/02/03 13:14:53;;;;;;;20.70;12.65;;;3.00;99.90;;;;;;4885967;29;20379;-80
2022/02/03 13:17:23;;;;;;;23.50;13.88;;;2.90;99.90;;;;;;4883196;29;20033;-79
2022/02/03 13:20:00;;;;;;;29.27;15.82;;;2.90;99.90;;;;;;4899759;29;20025;-78
2022/02/03 13:22:44;;;;;;;25.90;14.48;;;2.90;99.90;;;;;;4882626;29;20052;-78
2022/02/03 13:25:27;;;;;;;24.15;12.73;;;2.80;99.90;;;;;;4882471;29;20036;-79
2022/02/03 13:28:02;;;;;;;25.40;14.65;;;2.80;99.90;;;;;;4899059;29;20080;-79
2022/02/03 13:30:51;;;;;;;21.85;12.43;;;2.80;99.90;;;;;;4882657;29;20028;-79
2022/02/03 13:33:24;;;;;;;22.30;12.73;;;2.80;99.90;;;;;;4898780;29;20033;-79
2022/02/03 13:35:56;;;;;;;22.40;13.13;;;2.70;99.90;;;;;;4881427;29;20509;-78
2022/02/03 13:39:25;;;;;;;20.85;11.50;;;2.70;99.90;;;;;;4898314;29;20143;-80
2022/02/03 13:41:24;;;;;;;19.85;11.43;;;2.70;99.90;;;;;;4888312;29;20371;-78
2022/02/03 13:43:49;;;;;;;20.50;12.10;;;2.70;99.90;;;;;;4881934;29;20036;-78
2022/02/03 13:46:28;;;;;;;17.08;10.20;;;2.70;99.90;;;;;;4898797;29;20025;-79
2022/02/03 13:48:54;;;;;;;16.15;9.98;;;2.70;99.90;;;;;;4881766;29;20035;-78
2022/02/03 13:51:25;;;;;;;17.30;9.93;;;2.70;99.90;;;;;;4897371;29;20029;-79
2022/02/03 13:54:07;;;;;;;14.30;9.10;;;2.70;99.90;;;;;;4898627;29;20036;-80
2022/02/03 14:28:41;;;;;;;15.57;10.10;;;2.40;99.90;;;;;;4898706;29;20368;-77
2022/02/03 14:31:09;;;;;;;14.68;9.93;;;2.30;99.90;;;;;;4881367;29;20032;-77
2022/02/03 14:33:41;;;;;;;13.20;8.82;;;2.30;99.90;;;;;;4898245;29;20029;-78
2022/02/03 14:36:15;;;;;;;12.98;9.60;;;2.30;99.90;;;;;;4881906;29;20032;-77
2022/02/03 14:39:12;;;;;;;15.75;10.02;;;2.30;99.90;;;;;;4867094;29;20048;-78
2022/02/03 14:41:35;;;;;;;15.02;9.35;;;2.20;99.90;;;;;;4897511;29;20104;-78
2022/02/03 14:44:02;;;;;;;14.63;9.88;;;2.20;99.90;;;;;;4897043;29;20033;-79
2022/02/03 14:46:28;;;;;;;17.40;10.95;;;2.20;99.90;;;;;;4898357;29;20042;-80
2022/02/03 14:48:57;;;;;;;17.70;12.20;;;2.10;99.90;;;;;;4898167;29;20025;-79
2022/02/03 14:51:29;;;;;;;17.83;12.48;;;2.10;99.90;;;;;;4881638;29;20064;-79
2022/02/03 14:59:06;;;;;;;19.83;12.35;;;1.90;99.90;;;;;;4901954;29;20443;-81
2022/02/03 15:01:33;;;;;;;18.45;12.10;;;1.90;99.90;;;;;;4900376;29;20048;-81
2022/02/03 15:04:04;;;;;;;18.08;11.73;;;1.90;99.90;;;;;;4884829;29;20467;-81
2022/02/03 15:06:40;;;;;;;16.77;10.93;;;1.80;99.90;;;;;;4884618;29;20040;-81
2022/02/03 15:09:18;;;;;;;19.02;12.15;;;1.80;99.90;;;;;;4885632;29;20051;-80
2022/02/03 15:21:13;;;;;;;20.20;12.63;;;1.70;99.90;;;;;;4805931;29;20053;-80
2022/02/03 15:23:41;;;;;;;21.50;12.90;;;1.70;99.90;;;;;;4821613;29;20477;-81
2022/02/03 15:26:28;;;;;;;18.90;12.18;;;1.70;99.90;;;;;;4871080;29;20037;-82
2022/02/03 15:29:06;;;;;;;20.50;12.80;;;1.60;99.90;;;;;;4884049;29;20486;-81
2022/02/03 15:31:59;;;;;;;21.67;13.48;;;1.60;99.90;;;;;;4884507;29;20059;-82
2022/02/03 15:34:24;;;;;;;21.35;12.23;;;1.60;99.90;;;;;;4896578;29;20411;-80
2022/02/03 15:36:53;;;;;;;19.88;12.18;;;1.60;99.90;;;;;;4884725;29;20032;-81
2022/02/03 15:39:33;;;;;;;17.75;10.90;;;1.60;99.90;;;;;;4885393;29;20032;-81
2022/02/03 15:42:26;;;;;;;20.02;11.13;;;1.60;99.90;;;;;;4885520;29;20074;-80
2022/02/03 16:20:02;;;;;;;16.55;10.13;;;1.20;97.90;;;;;;4833590;29;20179;-81
2022/02/03 16:25:16;;;;;;;15.48;9.15;;;1.20;98.90;;;;;;4899977;29;20038;-81
2022/02/03 16:54:52;;;;;;;14.00;8.65;;;1.20;98.10;;;;;;4897887;29;20580;-78
2022/02/03 16:57:21;;;;;;;15.30;8.70;;;1.20;98.00;;;;;;4883742;29;20041;-85
2022/02/03 16:59:59;;;;;;;86.05;44.20;;;1.20;98.20;;;;;;4881774;29;20045;-83
2022/02/03 17:02:28;;;;;;;41.97;21.92;;;1.20;98.40;;;;;;4899311;29;20028;-80
2022/02/03 17:04:57;;;;;;;25.27;15.27;;;1.20;98.00;;;;;;4886857;29;20031;-81
2022/02/03 17:07:23;;;;;;;19.95;11.40;;;1.20;97.40;;;;;;4881530;29;20043;-85
2022/02/03 17:09:49;;;;;;;18.70;10.68;;;1.20;97.10;;;;;;4880082;29;20471;-83
2022/02/03 17:12:19;;;;;;;18.58;11.02;;;1.20;97.40;;;;;;4877159;29;20060;-83
2022/02/03 17:14:45;;;;;;;16.27;9.18;;;1.20;96.80;;;;;;4877291;29;20066;-84
2022/02/03 17:17:12;;;;;;;15.90;10.13;;;1.20;96.90;;;;;;4876905;29;20029;-83
2022/02/03 17:19:38;;;;;;;15.98;9.77;;;1.20;96.70;;;;;;4872864;29;20081;-83
2022/02/03 17:26:25;;;;;;;16.30;9.73;;;1.10;95.70;;;;;;4886605;29;20460;-87
2022/02/03 17:29:16;;;;;;;15.52;9.55;;;1.10;96.00;;;;;;4881406;29;20051;-87
2022/02/03 18:26:49;;;;;;;15.38;9.05;;;0.40;94.60;;;;;;4886790;29;20091;-79
2022/02/03 18:29:39;;;;;;;15.52;9.23;;;0.40;94.70;;;;;;4886463;29;20113;-81
2022/02/03 18:57:34;;;;;;;13.57;7.88;;;0.20;92.00;;;;;;4800726;29;20046;-80
2022/02/03 20:09:04;;;;;;;41.30;20.25;;;0.00;92.90;;;;;;4907169;29;20529;-80
2022/02/03 20:15:04;;;;;;;17.45;9.95;;;0.00;92.20;;;;;;4842989;29;20568;-84
2022/02/03 20:17:39;;;;;;;15.38;8.80;;;0.00;92.60;;;;;;4883027;29;20040;-80
2022/02/03 20:20:10;;;;;;;16.45;8.40;;;-0.10;91.80;;;;;;4909607;29;20478;-82
2022/02/03 20:22:48;;;;;;;18.13;10.00;;;-0.10;92.10;;;;;;4890751;29;20055;-83
2022/02/03 20:25:20;;;;;;;16.75;8.50;;;-0.10;92.00;;;;;;4897135;29;20069;-84
2022/02/03 20:27:50;;;;;;;13.57;7.47;;;-0.20;91.80;;;;;;4897641;29;20033;-81
2022/02/03 20:30:17;;;;;;;13.57;7.50;;;-0.10;91.80;;;;;;4865798;29;20132;-80
2022/02/03 20:32:51;;;;;;;14.00;7.38;;;-0.10;91.70;;;;;;4897729;29;20144;-82
2022/02/03 20:35:20;;;;;;;12.55;7.22;;;-0.10;91.60;;;;;;4864960;29;20067;-81
2022/02/03 20:37:48;;;;;;;13.00;7.30;;;-0.20;91.10;;;;;;4896658;29;20044;-83
2022/02/03 20:40:18;;;;;;;13.85;7.43;;;-0.20;90.60;;;;;;4880378;29;20032;-81
2022/02/03 20:43:00;;;;;;;11.60;7.30;;;-0.20;90.30;;;;;;4907240;29;20374;-82
2022/02/03 20:45:39;;;;;;;11.75;6.90;;;-0.30;89.70;;;;;;4907313;29;20402;-81
2022/02/03 20:48:10;;;;;;;11.00;6.85;;;-0.30;89.50;;;;;;4874214;29;20044;-82
2022/02/03 20:50:46;;;;;;;10.98;6.22;;;-0.40;90.10;;;;;;4887583;29;20036;-82
2022/02/03 20:53:15;;;;;;;11.73;6.97;;;-0.40;89.50;;;;;;4889867;29;20052;-82
2022/02/03 20:55:44;;;;;;;12.13;6.70;;;-0.40;89.50;;;;;;4865602;29;20050;-82
2022/02/03 20:58:16;;;;;;;12.75;6.97;;;-0.40;88.60;;;;;;4843519;29;20366;-82
2022/02/03 21:01:11;;;;;;;11.20;6.80;;;-0.40;87.90;;;;;;4866098;29;20599;-82
2022/02/03 21:03:43;;;;;;;10.15;6.18;;;-0.50;86.70;;;;;;4875641;29;20132;-80
2022/02/03 21:06:14;;;;;;;11.07;6.50;;;-0.50;87.70;;;;;;4870338;29;20040;-82
2022/02/03 21:08:54;;;;;;;11.07;6.38;;;-0.50;87.60;;;;;;4860341;29;20036;-82
2022/02/03 21:11:26;;;;;;;11.05;6.25;;;-0.60;87.00;;;;;;4868226;29;20040;-83
2022/02/03 21:14:06;;;;;;;12.25;5.82;;;-0.60;86.40;;;;;;4873986;29;20120;-81
2022/02/03 21:16:50;;;;;;;10.13;5.95;;;-0.60;84.20;;;;;;4875973;29;20055;-82
2022/02/03 21:19:23;;;;;;;11.77;5.97;;;-0.60;87.00;;;;;;4880428;29;20394;-83
2022/02/03 21:21:52;;;;;;;10.18;6.15;;;-0.60;87.00;;;;;;4877073;29;20043;-82
2022/02/03 21:24:27;;;;;;;8.90;5.50;;;-0.70;86.40;;;;;;4883066;29;20047;-82
2022/02/03 21:27:00;;;;;;;9.40;5.70;;;-0.70;86.60;;;;;;4886479;29;20045;-82
2022/02/03 21:37:07;;;;;;;10.52;6.38;;;-0.70;85.00;;;;;;4765366;30;20099;-85
2022/02/03 21:39:40;;;;;;;10.50;6.45;;;-0.70;84.50;;;;;;4777219;29;20043;-82
2022/02/03 21:42:15;;;;;;;13.25;6.78;;;-0.70;85.90;;;;;;4842349;29;20160;-82
2022/02/03 21:44:43;;;;;;;11.65;6.75;;;-0.80;84.50;;;;;;4894923;29;20103;-81
2022/02/03 21:47:09;;;;;;;11.45;6.53;;;-0.80;85.10;;;;;;4887424;29;20047;-81
2022/02/03 21:49:46;;;;;;;11.90;6.90;;;-0.80;85.20;;;;;;4866659;29;20135;-82
2022/02/03 21:52:20;;;;;;;9.70;6.65;;;-0.80;84.50;;;;;;4897540;29;20526;-79
2022/02/03 21:54:49;;;;;;;11.00;6.38;;;-0.80;84.80;;;;;;4889416;29;20050;-77
2022/02/03 21:57:21;;;;;;;12.05;7.05;;;-0.80;85.20;;;;;;4876424;29;20036;-82
2022/02/03 21:59:56;;;;;;;11.48;6.65;;;-0.90;84.40;;;;;;4874919;29;20048;-82
2022/02/03 22:02:28;;;;;;;10.35;6.53;;;-0.90;84.00;;;;;;4906025;29;20059;-81
2022/02/03 22:05:02;;;;;;;11.95;6.65;;;-0.90;83.70;;;;;;4901851;29;20040;-79
2022/02/03 22:07:30;;;;;;;11.95;6.15;;;-0.90;84.00;;;;;;4918489;29;20040;-80
2022/02/03 22:09:56;;;;;;;11.30;6.03;;;-1.00;84.10;;;;;;4905684;29;20036;-80
2022/02/03 22:12:28;;;;;;;9.93;6.18;;;-1.00;84.10;;;;;;4921582;29;20063;-80
2022/02/03 22:15:18;;;;;;;14.68;7.00;;;-1.00;84.20;;;;;;4905714;29;20107;-79
2022/02/03 22:17:51;;;;;;;11.27;6.38;;;-1.10;82.20;;;;;;4905677;29;20382;-79
2022/02/03 22:20:35;;;;;;;9.75;5.40;;;-1.10;83.30;;;;;;4907396;29;20099;-81
2022/02/03 22:23:48;;;;;;;11.10;6.00;;;-1.10;83.70;;;;;;4905012;29;20090;-81
2022/02/03 22:50:23;;;;;;;11.40;5.88;;;-1.30;82.00;;;;;;4902599;29;20303;-80
2022/02/03 22:53:03;;;;;;;8.82;5.18;;;-1.30;81.90;;;;;;4884821;29;20047;-79
2022/02/03 22:55:38;;;;;;;10.43;6.00;;;-1.30;82.20;;;;;;4900013;29;20055;-80
2022/02/03 23:01:05;;;;;;;10.07;5.80;;;-1.30;82.70;;;;;;4902347;29;20103;-80
2022/02/03 23:03:36;;;;;;;10.23;5.40;;;-1.30;82.70;;;;;;4889491;29;20063;-80
2022/02/03 23:06:08;;;;;;;11.90;6.43;;;-1.30;82.50;;;;;;4869221;29;20507;-80
2022/02/03 23:14:21;;;;;;;10.77;5.88;;;-1.30;82.90;;;;;;4921652;29;20047;-80
2022/02/03 23:24:55;;;;;;;9.10;5.90;;;-1.40;82.70;;;;;;4920745;29;20083;-81
2022/02/03 23:30:05;;;;;;;9.75;5.35;;;-1.50;83.10;;;;;;4920422;29;20032;-80
2022/02/03 23:32:33;;;;;;;9.82;5.18;;;-1.40;83.40;;;;;;4903132;29;20039;-80
2022/02/03 23:35:18;;;;;;;9.45;5.05;;;-1.40;83.40;;;;;;4903304;29;20036;-79
2022/02/03 23:38:08;;;;;;;12.10;5.70;;;-1.50;83.40;;;;;;4903311;29;20039;-79
2022/02/03 23:41:05;;;;;;;11.00;5.93;;;-1.40;83.00;;;;;;4902072;29;20044;-80
2022/02/03 23:46:42;;;;;;;9.25;5.38;;;-1.50;82.70;;;;;;4919550;29;20024;-80
